Terminal Aerodrome Forecast
Issued by NWS

Home | Current Version | Previous Version | Graphics & Text | Print | Product List | Glossary On
Versions: 1 2 3 4 5 6 7 8 9 10 11 12 13 14 15 16 17 18 19 20 21 22 23 24
470
FTUS43 KICT 271233 AAA
TAFSLN
TAF AMD
KSLN 271233Z 2713/2812 12009KT P6SM BKN007
     FM271430 14010KT P6SM SCT007
     FM271700 15015KT P6SM BKN050
     FM271900 17017G25KT P6SM SCT050=

USA.gov is the U.S. government's official web portal to all federal, state and local government web resources and services.